Time;durP1;ratioP1;P1;durP2;ratioP2;P2;SDS_P1;SDS_P2;PMS_P1;PMS_P2;Temp;Humidity;BMP_temperature;BMP_pressure;BME280_temperature;BME280_humidity;BME280_pressure;Samples;Min_cycle;Max_cycle;Signal;HPM_P1;HPM_P2
2023/12/23 16:12:50;;;;;;;0.10;0.10;;;9.20;99.90;;;;;;5097299;27;20639;-76
2023/12/23 16:15:15;;;;;;;0.20;0.20;;;9.00;99.90;;;;;;5066020;28;20048;-78
2023/12/23 16:17:41;;;;;;;0.10;0.10;;;9.00;99.90;;;;;;5064741;28;20041;-76
2023/12/23 16:20:08;;;;;;;0.17;0.17;;;9.00;99.90;;;;;;5051873;28;20037;-78
2023/12/23 16:22:33;;;;;;;0.20;0.20;;;9.00;99.90;;;;;;5063361;28;20041;-79
2023/12/23 16:24:59;;;;;;;0.20;0.20;;;9.00;99.90;;;;;;5046427;28;20585;-79
2023/12/23 16:27:25;;;;;;;0.20;0.20;;;9.10;99.90;;;;;;5052537;28;20450;-79
2023/12/23 16:29:51;;;;;;;0.20;0.20;;;9.10;99.90;;;;;;5068274;28;20109;-79
2023/12/23 16:32:17;;;;;;;0.20;0.20;;;9.20;99.90;;;;;;5067547;28;20086;-76
2023/12/23 16:34:43;;;;;;;0.17;0.17;;;9.20;99.90;;;;;;5068096;28;20177;-77
2023/12/23 16:37:09;;;;;;;0.20;0.20;;;9.20;99.90;;;;;;5067436;28;20483;-77
2023/12/23 16:39:34;;;;;;;0.20;0.20;;;9.40;99.90;;;;;;5062779;28;20040;-77
2023/12/23 16:42:00;;;;;;;0.20;0.20;;;9.30;99.90;;;;;;5058518;28;20048;-78
2023/12/23 16:44:26;;;;;;;0.20;0.20;;;9.30;99.90;;;;;;5068097;28;20404;-77
2023/12/23 16:46:51;;;;;;;0.20;0.20;;;9.30;99.90;;;;;;5067329;28;20059;-78
2023/12/23 16:49:17;;;;;;;0.20;0.20;;;9.30;99.90;;;;;;5060856;28;20033;-77
2023/12/23 16:51:42;;;;;;;0.20;0.20;;;9.40;99.90;;;;;;5058478;28;20598;-78
2023/12/23 16:54:08;;;;;;;0.20;0.20;;;9.60;99.90;;;;;;5047215;28;20495;-77
2023/12/23 16:56:36;;;;;;;0.20;0.20;;;9.40;99.90;;;;;;5058314;28;20048;-77
2023/12/23 16:59:02;;;;;;;0.20;0.20;;;9.40;99.90;;;;;;5047414;28;20040;-78
2023/12/23 17:01:28;;;;;;;0.20;0.20;;;9.50;99.90;;;;;;5055934;28;20392;-79
2023/12/23 17:03:53;;;;;;;0.20;0.20;;;9.40;99.90;;;;;;5067438;28;20507;-77
2023/12/23 17:06:19;;;;;;;0.15;0.15;;;9.50;99.90;;;;;;5056025;28;20048;-78
2023/12/23 17:08:45;;;;;;;0.20;0.20;;;9.50;99.90;;;;;;5058835;28;20049;-78
2023/12/23 17:11:10;;;;;;;0.20;0.20;;;9.40;99.90;;;;;;5061220;28;20057;-79
2023/12/23 17:13:36;;;;;;;0.20;0.20;;;9.40;99.90;;;;;;5062614;28;20127;-78
2023/12/23 17:16:02;;;;;;;0.20;0.20;;;9.50;99.90;;;;;;5062062;28;20541;-77
2023/12/23 17:18:28;;;;;;;0.20;0.20;;;9.50;99.90;;;;;;5064018;28;20051;-78
2023/12/23 17:20:54;;;;;;;0.17;0.17;;;9.40;99.90;;;;;;5063238;28;20063;-78
2023/12/23 17:23:24;;;;;;;0.20;0.20;;;9.50;99.90;;;;;;5054742;28;20403;-77
2023/12/23 17:25:53;;;;;;;0.20;0.20;;;9.50;99.90;;;;;;5037404;28;20060;-78
2023/12/23 17:28:19;;;;;;;0.20;0.20;;;9.50;99.90;;;;;;5040858;28;20044;-77
2023/12/23 17:30:45;;;;;;;0.20;0.20;;;9.50;99.90;;;;;;5033901;28;20048;-77
2023/12/23 17:33:12;;;;;;;0.20;0.20;;;9.50;99.90;;;;;;5033655;28;20037;-78
2023/12/23 17:35:41;;;;;;;0.20;0.20;;;9.50;99.90;;;;;;5033257;28;20049;-79
2023/12/23 17:38:09;;;;;;;0.20;0.20;;;9.50;99.90;;;;;;5033431;28;20045;-77
2023/12/23 17:40:35;;;;;;;0.20;0.20;;;9.70;99.90;;;;;;5036646;28;20075;-78
2023/12/23 17:43:02;;;;;;;0.20;0.20;;;9.50;99.90;;;;;;5048788;28;20067;-79
2023/12/23 17:45:28;;;;;;;0.55;0.52;;;9.50;99.90;;;;;;5050101;28;20045;-79
2023/12/23 17:47:54;;;;;;;0.20;0.20;;;9.60;99.90;;;;;;5049938;28;20071;-78
2023/12/23 17:50:20;;;;;;;0.20;0.20;;;9.50;99.90;;;;;;5046791;28;20456;-79
2023/12/23 17:52:45;;;;;;;0.15;0.15;;;9.50;99.90;;;;;;5052828;28;20048;-78
2023/12/23 17:55:11;;;;;;;0.20;0.20;;;9.50;99.90;;;;;;5050956;28;20055;-79
2023/12/23 17:57:36;;;;;;;0.20;0.20;;;9.50;99.90;;;;;;5052449;28;20486;-78
2023/12/23 18:00:02;;;;;;;0.20;0.20;;;9.50;99.90;;;;;;5052663;28;20123;-77
2023/12/23 18:02:28;;;;;;;0.10;0.10;;;9.50;99.90;;;;;;5050527;28;20050;-78
2023/12/23 18:04:54;;;;;;;0.20;0.20;;;9.50;99.90;;;;;;5047822;28;20052;-78
2023/12/23 18:07:20;;;;;;;0.20;0.20;;;9.50;99.90;;;;;;5039034;28;20071;-78
2023/12/23 18:09:46;;;;;;;0.13;0.13;;;9.50;99.90;;;;;;5051663;28;20049;-78
2023/12/23 18:12:11;;;;;;;0.20;0.20;;;9.50;99.90;;;;;;5050853;28;20052;-77
2023/12/23 18:14:37;;;;;;;0.20;0.20;;;9.50;99.90;;;;;;5053280;28;20048;-78
2023/12/23 18:17:03;;;;;;;0.20;0.20;;;9.70;99.90;;;;;;5052747;28;20068;-78
2023/12/23 18:19:29;;;;;;;0.13;0.13;;;9.60;99.90;;;;;;5047149;28;20045;-77
2023/12/23 18:21:55;;;;;;;0.20;0.20;;;9.50;99.90;;;;;;5047620;28;20044;-79
2023/12/23 18:24:21;;;;;;;0.20;0.20;;;9.60;99.90;;;;;;5048347;28;20044;-80
2023/12/23 18:26:47;;;;;;;0.20;0.20;;;9.50;99.90;;;;;;5034628;28;20045;-80
2023/12/23 18:29:13;;;;;;;0.20;0.20;;;9.50;99.90;;;;;;5035675;28;20041;-78
2023/12/23 18:31:39;;;;;;;0.20;0.20;;;9.50;99.90;;;;;;5038273;28;20495;-78
2023/12/23 18:34:04;;;;;;;0.20;0.20;;;9.50;99.90;;;;;;5050909;28;20431;-78
2023/12/23 18:36:31;;;;;;;0.10;0.10;;;9.50;99.90;;;;;;5048794;28;20056;-80
2023/12/23 18:38:57;;;;;;;0.20;0.20;;;9.50;99.90;;;;;;5031668;28;20049;-78
2023/12/23 18:41:23;;;;;;;0.20;0.20;;;9.50;99.90;;;;;;5054040;28;20395;-77
2023/12/23 18:43:49;;;;;;;0.20;0.20;;;9.50;99.90;;;;;;5069768;28;20056;-79
2023/12/23 18:46:14;;;;;;;0.20;0.20;;;9.50;99.90;;;;;;5047530;28;20412;-79
2023/12/23 18:48:40;;;;;;;0.20;0.20;;;9.50;99.90;;;;;;5057175;28;20053;-79
2023/12/23 18:51:06;;;;;;;0.20;0.20;;;9.60;99.90;;;;;;5045925;28;20175;-79
2023/12/23 18:53:31;;;;;;;0.10;0.10;;;9.50;99.90;;;;;;5051211;28;20103;-78
2023/12/23 18:55:58;;;;;;;0.17;0.17;;;9.50;99.90;;;;;;5050347;28;20040;-79
2023/12/23 18:58:24;;;;;;;0.20;0.20;;;9.70;99.90;;;;;;5044327;28;20037;-80
2023/12/23 19:00:52;;;;;;;0.20;0.20;;;9.50;99.90;;;;;;5031949;28;20388;-79
2023/12/23 19:03:18;;;;;;;0.20;0.20;;;9.50;99.90;;;;;;5051221;28;20076;-78
2023/12/23 19:05:43;;;;;;;0.10;0.10;;;9.50;99.90;;;;;;5048959;28;20131;-78
2023/12/23 19:08:09;;;;;;;0.20;0.20;;;9.50;99.90;;;;;;5049368;28;20488;-79
2023/12/23 19:10:35;;;;;;;0.20;0.20;;;9.50;99.90;;;;;;5050905;28;20244;-79
2023/12/23 19:13:00;;;;;;;0.20;0.20;;;9.50;99.90;;;;;;5046111;28;20051;-78
2023/12/23 19:15:26;;;;;;;0.20;0.20;;;9.60;99.90;;;;;;5040317;28;20056;-78
2023/12/23 19:17:52;;;;;;;0.20;0.20;;;9.60;99.90;;;;;;5046315;28;20116;-79
2023/12/23 19:20:20;;;;;;;0.20;0.20;;;9.60;99.90;;;;;;5048299;28;20047;-79
2023/12/23 19:22:45;;;;;;;0.20;0.20;;;9.60;99.90;;;;;;5066258;28;20048;-79
2023/12/23 19:25:11;;;;;;;0.20;0.20;;;9.60;99.90;;;;;;5045174;28;20064;-78
2023/12/23 19:27:37;;;;;;;0.20;0.20;;;9.60;99.90;;;;;;5046920;28;20404;-79
2023/12/23 19:30:03;;;;;;;0.20;0.20;;;9.60;99.90;;;;;;5048561;28;20484;-79
2023/12/23 19:32:29;;;;;;;0.20;0.20;;;9.60;99.90;;;;;;5048707;28;20048;-78
2023/12/23 19:34:54;;;;;;;0.20;0.20;;;9.70;99.90;;;;;;5044336;28;20055;-78
2023/12/23 19:37:20;;;;;;;0.20;0.20;;;9.80;99.90;;;;;;5039683;28;20045;-77
2023/12/23 19:39:48;;;;;;;0.10;0.10;;;9.80;99.90;;;;;;5045115;28;20063;-79
2023/12/23 19:42:13;;;;;;;0.10;0.10;;;9.60;99.90;;;;;;5048747;28;20174;-79
2023/12/23 19:44:39;;;;;;;0.20;0.20;;;9.60;99.90;;;;;;5044874;28;20500;-79
2023/12/23 19:47:05;;;;;;;0.20;0.20;;;9.60;99.90;;;;;;5048153;28;20101;-79
2023/12/23 19:49:30;;;;;;;0.10;0.10;;;9.60;99.90;;;;;;5046382;28;20043;-78
2023/12/23 19:51:56;;;;;;;0.17;0.17;;;9.60;99.90;;;;;;5042619;28;20499;-79
2023/12/23 19:54:22;;;;;;;0.10;0.10;;;9.70;99.90;;;;;;5046108;28;20045;-78
2023/12/23 19:56:49;;;;;;;0.20;0.20;;;9.70;99.90;;;;;;5047265;28;20036;-79
2023/12/23 19:59:14;;;;;;;0.15;0.15;;;9.40;99.90;;;;;;5047587;28;20101;-78
2023/12/23 20:01:44;;;;;;;0.20;0.20;;;9.60;99.90;;;;;;5048338;28;20147;-77
2023/12/23 20:04:10;;;;;;;0.20;0.20;;;9.50;99.90;;;;;;5040530;28;20028;-78
2023/12/23 20:06:35;;;;;;;0.20;0.20;;;9.50;99.90;;;;;;5047423;28;20044;-78
2023/12/23 20:09:02;;;;;;;0.20;0.20;;;9.60;99.90;;;;;;5035598;28;20044;-79
2023/12/23 20:11:28;;;;;;;0.20;0.20;;;9.50;99.90;;;;;;5040278;28;20058;-79
2023/12/23 20:13:54;;;;;;;0.20;0.20;;;9.60;99.90;;;;;;5037494;28;20041;-79
2023/12/23 20:16:23;;;;;;;0.20;0.20;;;9.50;99.90;;;;;;5041641;28;20039;-79
2023/12/23 20:18:50;;;;;;;0.20;0.20;;;9.40;99.90;;;;;;5040458;28;20045;-80
2023/12/23 20:21:16;;;;;;;0.20;0.20;;;9.30;99.90;;;;;;5043524;28;20044;-79
2023/12/23 20:23:43;;;;;;;0.20;0.20;;;9.50;99.90;;;;;;5046072;28;20049;-79
2023/12/23 20:26:09;;;;;;;0.15;0.15;;;9.50;99.90;;;;;;5035277;28;20048;-78
2023/12/23 20:28:35;;;;;;;0.20;0.20;;;9.40;99.90;;;;;;5042124;28;20120;-79
2023/12/23 20:31:00;;;;;;;0.20;0.20;;;9.40;99.90;;;;;;5038729;28;20872;-78
2023/12/23 20:33:26;;;;;;;0.20;0.20;;;9.40;99.90;;;;;;5039999;28;20044;-79
2023/12/23 20:35:51;;;;;;;0.20;0.20;;;9.40;99.90;;;;;;5043514;28;20060;-81
2023/12/23 20:38:17;;;;;;;0.20;0.20;;;9.40;99.90;;;;;;5045104;28;20048;-78
2023/12/23 20:40:43;;;;;;;0.20;0.20;;;9.30;99.90;;;;;;5042304;28;20391;-78
2023/12/23 20:43:08;;;;;;;0.10;0.10;;;9.40;99.90;;;;;;5043417;28;20206;-77
2023/12/23 20:45:34;;;;;;;0.20;0.20;;;9.40;99.90;;;;;;5044661;28;20053;-79
2023/12/23 20:47:59;;;;;;;0.20;0.20;;;9.40;99.90;;;;;;5035826;28;20042;-79
2023/12/23 20:50:25;;;;;;;0.20;0.20;;;9.30;99.90;;;;;;5047128;28;20037;-78
2023/12/23 20:52:51;;;;;;;0.20;0.20;;;9.40;99.90;;;;;;5040676;28;20053;-78
2023/12/23 20:55:19;;;;;;;0.20;0.20;;;9.40;99.90;;;;;;5045385;28;20037;-79
2023/12/23 20:57:45;;;;;;;0.20;0.20;;;9.40;99.90;;;;;;5045486;28;20081;-79
2023/12/23 21:00:12;;;;;;;0.10;0.10;;;9.30;99.90;;;;;;5046942;28;20520;-79
2023/12/23 21:02:37;;;;;;;0.20;0.20;;;9.30;99.90;;;;;;5050843;28;20047;-79
2023/12/23 21:05:03;;;;;;;0.17;0.17;;;9.30;99.90;;;;;;5050097;28;20408;-80
2023/12/23 21:07:29;;;;;;;0.10;0.10;;;9.40;99.90;;;;;;5049231;28;20037;-78
2023/12/23 21:09:55;;;;;;;0.10;0.10;;;9.30;99.90;;;;;;5046795;28;20051;-79
2023/12/23 21:12:21;;;;;;;0.20;0.20;;;9.30;99.90;;;;;;5066625;28;20488;-79
2023/12/23 21:14:48;;;;;;;0.20;0.20;;;9.30;99.90;;;;;;5050811;28;20654;-79
2023/12/23 21:17:13;;;;;;;0.10;0.10;;;9.40;99.90;;;;;;5050870;28;20123;-80
2023/12/23 21:19:39;;;;;;;0.15;0.15;;;9.30;99.90;;;;;;5051630;28;20135;-79
2023/12/23 21:22:05;;;;;;;0.10;0.10;;;9.30;99.90;;;;;;5049080;28;20045;-79
2023/12/23 21:24:31;;;;;;;0.20;0.20;;;9.30;99.90;;;;;;5067089;28;20098;-79
2023/12/23 21:26:57;;;;;;;0.20;0.20;;;9.40;99.90;;;;;;5045139;28;20409;-78
2023/12/23 21:29:23;;;;;;;0.20;0.20;;;9.30;99.90;;;;;;5050756;28;20109;-80
2023/12/23 21:31:49;;;;;;;0.20;0.20;;;9.30;99.90;;;;;;5052392;28;20480;-78
2023/12/23 21:34:15;;;;;;;0.10;0.10;;;9.30;99.90;;;;;;5052702;28;20177;-79
2023/12/23 21:36:41;;;;;;;0.20;0.20;;;9.30;99.90;;;;;;5048899;28;20047;-77
2023/12/23 21:39:07;;;;;;;0.10;0.10;;;9.30;99.90;;;;;;5038564;28;20124;-78
2023/12/23 21:41:33;;;;;;;0.20;0.20;;;9.30;99.90;;;;;;5046468;28;20076;-79
2023/12/23 21:43:59;;;;;;;0.20;0.20;;;9.30;99.90;;;;;;5051847;28;20630;-79
2023/12/23 21:46:27;;;;;;;0.20;0.20;;;9.30;99.90;;;;;;5049569;28;20127;-77
2023/12/23 21:48:53;;;;;;;0.20;0.20;;;9.20;99.90;;;;;;5048431;28;20044;-77
2023/12/23 21:51:19;;;;;;;0.20;0.20;;;9.40;99.90;;;;;;5040861;28;20052;-79
2023/12/23 21:53:45;;;;;;;0.20;0.20;;;9.30;99.90;;;;;;5045029;28;20057;-79
2023/12/23 21:56:11;;;;;;;0.20;0.20;;;9.30;99.90;;;;;;5048650;28;20100;-78
2023/12/23 21:58:37;;;;;;;0.20;0.20;;;9.40;99.90;;;;;;5051912;28;20056;-78
2023/12/23 22:01:04;;;;;;;0.10;0.10;;;9.30;99.90;;;;;;5051362;28;20075;-77
2023/12/23 22:03:30;;;;;;;0.20;0.20;;;9.30;99.90;;;;;;5044727;28;20052;-77
2023/12/23 22:05:56;;;;;;;0.20;0.20;;;9.30;99.90;;;;;;5052824;28;20060;-78
2023/12/23 22:08:21;;;;;;;0.17;0.17;;;9.50;99.90;;;;;;5047328;28;20511;-77
2023/12/23 22:10:47;;;;;;;0.20;0.20;;;9.30;99.90;;;;;;5047795;28;20057;-77
2023/12/23 22:13:13;;;;;;;0.20;0.20;;;9.30;99.90;;;;;;5044214;28;20052;-78
2023/12/23 22:15:40;;;;;;;0.13;0.13;;;9.30;99.90;;;;;;5052979;28;20131;-77
2023/12/23 22:18:06;;;;;;;0.10;0.10;;;9.30;99.90;;;;;;5051000;28;20040;-77
2023/12/23 22:20:32;;;;;;;0.20;0.20;;;9.30;99.90;;;;;;5047270;28;20489;-77
2023/12/23 22:22:58;;;;;;;0.20;0.20;;;9.30;99.90;;;;;;5048423;28;20429;-77
2023/12/23 22:25:24;;;;;;;0.20;0.20;;;9.30;99.90;;;;;;5031410;28;20045;-77
2023/12/23 22:27:50;;;;;;;0.20;0.20;;;9.30;99.90;;;;;;5048629;28;20048;-78
2023/12/23 22:30:16;;;;;;;0.20;0.20;;;9.30;99.90;;;;;;5052205;28;20109;-78
2023/12/23 22:32:42;;;;;;;0.10;0.10;;;9.30;99.90;;;;;;5076007;28;20127;-78
2023/12/23 22:35:08;;;;;;;0.20;0.20;;;9.40;99.90;;;;;;5051236;28;20128;-79
2023/12/23 22:37:35;;;;;;;0.10;0.10;;;9.20;99.90;;;;;;5051655;28;20707;-78
2023/12/23 22:40:00;;;;;;;0.20;0.20;;;9.30;99.90;;;;;;5047668;28;20398;-78
2023/12/23 22:42:26;;;;;;;0.20;0.20;;;9.30;99.90;;;;;;5050301;28;20041;-79
2023/12/23 22:44:53;;;;;;;0.20;0.20;;;9.40;99.90;;;;;;5051911;28;20387;-78
2023/12/23 22:47:19;;;;;;;0.10;0.10;;;9.30;99.90;;;;;;5070090;28;20476;-79
2023/12/23 22:49:48;;;;;;;0.20;0.20;;;9.30;99.90;;;;;;5067650;28;20044;-78
2023/12/23 22:52:15;;;;;;;0.20;0.20;;;9.30;99.90;;;;;;5049474;28;20048;-78
2023/12/23 22:54:40;;;;;;;0.13;0.13;;;9.30;99.90;;;;;;5042190;28;20066;-78
2023/12/23 22:57:06;;;;;;;0.20;0.20;;;9.30;99.90;;;;;;5048188;28;20095;-78
2023/12/23 22:59:32;;;;;;;0.20;0.20;;;9.40;99.90;;;;;;5045865;28;20493;-78
2023/12/23 23:01:57;;;;;;;0.20;0.20;;;9.30;99.90;;;;;;5041516;28;20037;-79
2023/12/23 23:04:23;;;;;;;0.15;0.15;;;9.30;99.90;;;;;;5041448;28;20049;-77
2023/12/23 23:06:49;;;;;;;0.20;0.20;;;9.20;99.90;;;;;;5042239;28;20049;-77
2023/12/23 23:09:18;;;;;;;0.20;0.20;;;9.30;99.90;;;;;;5036105;28;20055;-78
2023/12/23 23:11:44;;;;;;;0.20;0.20;;;9.30;99.90;;;;;;5042831;28;20056;-78
2023/12/23 23:14:09;;;;;;;0.10;0.10;;;9.30;99.90;;;;;;5080181;28;20055;-78
2023/12/23 23:16:35;;;;;;;0.10;0.10;;;9.30;99.90;;;;;;5050318;28;20477;-77
2023/12/23 23:19:01;;;;;;;0.20;0.20;;;9.30;99.90;;;;;;5050739;28;20044;-78
2023/12/23 23:21:26;;;;;;;0.10;0.10;;;9.20;99.90;;;;;;5067980;28;20076;-78
2023/12/23 23:23:52;;;;;;;0.35;0.30;;;9.20;99.90;;;;;;5046644;28;20056;-79
2023/12/23 23:26:18;;;;;;;0.10;0.10;;;9.30;99.90;;;;;;5038626;28;20052;-79
2023/12/23 23:28:43;;;;;;;0.10;0.10;;;9.30;99.90;;;;;;5051446;28;20046;-78
2023/12/23 23:31:11;;;;;;;0.10;0.10;;;9.30;99.90;;;;;;5047048;28;20136;-77
2023/12/23 23:33:37;;;;;;;0.10;0.10;;;9.30;99.90;;;;;;5050534;28;20041;-78
2023/12/23 23:36:03;;;;;;;0.20;0.20;;;9.30;99.90;;;;;;5046503;28;20095;-79
2023/12/23 23:38:28;;;;;;;0.20;0.20;;;9.30;99.90;;;;;;5047542;28;20043;-79
2023/12/23 23:40:54;;;;;;;0.20;0.20;;;9.30;99.90;;;;;;5068132;28;20431;-77
2023/12/23 23:43:20;;;;;;;0.20;0.20;;;9.30;99.90;;;;;;5046961;28;20060;-78
2023/12/23 23:45:45;;;;;;;0.10;0.10;;;9.30;99.90;;;;;;5050999;28;20039;-78
2023/12/23 23:48:12;;;;;;;0.20;0.20;;;9.30;99.90;;;;;;5049442;28;20529;-79
2023/12/23 23:50:38;;;;;;;0.20;0.20;;;9.30;99.90;;;;;;5050030;28;20052;-78
2023/12/23 23:53:03;;;;;;;0.10;0.10;;;9.30;99.90;;;;;;5048288;28;20044;-79
2023/12/23 23:55:29;;;;;;;0.17;0.17;;;9.20;99.90;;;;;;5043698;28;20423;-79
2023/12/23 23:57:55;;;;;;;0.20;0.20;;;9.30;99.90;;;;;;5044408;28;20040;-79
